Time;durP1;ratioP1;P1;durP2;ratioP2;P2;SDS_P1;SDS_P2;PMS_P1;PMS_P2;Temp;Humidity;BMP_temperature;BMP_pressure;BME280_temperature;BME280_humidity;BME280_pressure;Samples;Min_cycle;Max_cycle;Signal;HPM_P1;HPM_P2
2022/06/12 00:00:14;;;;;;;10.32;1.73;;;17.00;99.90;;;;;;5036225;28;20207;-78
2022/06/12 00:02:42;;;;;;;5.78;1.85;;;17.00;99.90;;;;;;5035430;28;20234;-79
2022/06/12 00:05:09;;;;;;;7.80;2.15;;;17.10;99.90;;;;;;5035695;28;20164;-79
2022/06/12 00:07:37;;;;;;;8.02;1.80;;;17.10;99.90;;;;;;5035850;28;20180;-78
2022/06/12 00:10:04;;;;;;;7.07;1.48;;;17.20;99.90;;;;;;5035700;28;20215;-79
2022/06/12 00:12:30;;;;;;;6.53;1.58;;;17.20;99.90;;;;;;5035879;28;20167;-79
2022/06/12 00:14:56;;;;;;;3.17;1.38;;;17.20;99.90;;;;;;5034415;28;20179;-80
2022/06/12 00:17:22;;;;;;;8.10;2.38;;;17.10;99.90;;;;;;5035508;28;20160;-78
2022/06/12 00:19:49;;;;;;;5.95;2.78;;;17.20;99.90;;;;;;5035296;28;20194;-79
2022/06/12 00:22:16;;;;;;;5.05;2.28;;;17.10;99.90;;;;;;5035520;28;20298;-78
2022/06/12 00:24:42;;;;;;;12.02;2.97;;;17.10;99.90;;;;;;5035492;28;20640;-78
2022/06/12 00:27:08;;;;;;;5.55;1.80;;;17.00;99.90;;;;;;5035291;28;20182;-78
2022/06/12 00:29:35;;;;;;;5.22;2.08;;;17.10;99.90;;;;;;5035251;28;20180;-78
2022/06/12 00:32:29;;;;;;;6.18;1.60;;;17.10;99.90;;;;;;5035716;28;20176;-79
2022/06/12 00:34:56;;;;;;;3.60;1.67;;;16.90;99.90;;;;;;5033372;28;20179;-80
2022/06/12 00:37:23;;;;;;;7.78;1.67;;;16.90;99.90;;;;;;5035147;28;20171;-79
2022/06/12 00:39:51;;;;;;;7.85;1.63;;;16.90;99.90;;;;;;5035425;28;20678;-81
2022/06/12 00:42:28;;;;;;;6.20;1.50;;;16.90;99.90;;;;;;5035506;28;20210;-86
2022/06/12 00:44:56;;;;;;;2.45;1.13;;;17.00;99.90;;;;;;5035680;28;20178;-83
2022/06/12 00:47:23;;;;;;;4.60;1.10;;;17.10;99.90;;;;;;5035614;28;20226;-84
2022/06/12 00:50:03;;;;;;;9.07;1.92;;;17.10;99.90;;;;;;5035074;28;20242;-84
2022/06/12 00:52:43;;;;;;;4.70;1.35;;;17.20;99.90;;;;;;5035324;28;20659;-83
2022/06/12 00:55:14;;;;;;;7.53;1.48;;;17.10;99.90;;;;;;5035409;28;20160;-83
2022/06/12 00:57:40;;;;;;;6.35;1.25;;;17.00;99.90;;;;;;5035571;28;20206;-83
2022/06/12 01:00:12;;;;;;;9.15;1.58;;;17.00;99.90;;;;;;5034144;28;20618;-83
2022/06/12 01:02:39;;;;;;;3.65;1.27;;;17.00;99.90;;;;;;5035386;28;20761;-82
2022/06/12 01:07:55;;;;;;;4.72;1.60;;;16.80;99.90;;;;;;5035494;28;20246;-87
2022/06/12 01:10:23;;;;;;;5.72;1.80;;;16.80;99.90;;;;;;5035014;28;20720;-85
2022/06/12 01:12:55;;;;;;;6.85;1.50;;;16.60;99.90;;;;;;5035160;28;20172;-84
2022/06/12 01:15:35;;;;;;;12.43;2.05;;;16.60;99.90;;;;;;5034908;28;20167;-82
2022/06/12 01:18:02;;;;;;;5.72;1.38;;;16.70;99.90;;;;;;5034927;28;20655;-80
2022/06/12 01:20:37;;;;;;;9.05;2.00;;;16.70;99.90;;;;;;5033741;28;20595;-79
2022/06/12 01:23:19;;;;;;;4.70;1.25;;;16.50;99.90;;;;;;5034768;28;20741;-84
2022/06/12 01:25:54;;;;;;;5.30;1.40;;;16.70;99.90;;;;;;5035134;28;20462;-85
2022/06/12 01:28:37;;;;;;;3.38;1.30;;;16.70;99.90;;;;;;5033803;28;20195;-84
2022/06/12 01:31:16;;;;;;;5.00;1.42;;;16.60;99.90;;;;;;5034639;28;20183;-82
2022/06/12 01:33:47;;;;;;;5.00;1.30;;;16.30;99.90;;;;;;5033897;28;20579;-82
2022/06/12 01:36:31;;;;;;;4.93;1.45;;;16.50;99.90;;;;;;5034898;28;20532;-86
2022/06/12 01:39:29;;;;;;;12.02;1.88;;;16.50;99.90;;;;;;5034727;28;20188;-82
2022/06/12 01:42:12;;;;;;;6.22;0.73;;;16.50;99.90;;;;;;5042757;28;20195;-78
2022/06/12 01:44:48;;;;;;;10.02;1.92;;;16.30;99.90;;;;;;5051784;28;20172;-79
2022/06/12 01:47:24;;;;;;;2.70;1.17;;;16.10;99.90;;;;;;5056536;28;20144;-86
2022/06/12 01:50:17;;;;;;;4.50;1.38;;;16.20;99.90;;;;;;5034757;28;20190;-78
2022/06/12 01:52:48;;;;;;;3.20;1.35;;;16.20;99.90;;;;;;5034230;28;20172;-82
2022/06/12 01:55:29;;;;;;;2.35;0.88;;;16.20;99.90;;;;;;5033898;28;20221;-81
2022/06/12 01:58:19;;;;;;;3.45;1.50;;;16.30;99.90;;;;;;5049522;22;20154;-80
2022/06/12 02:01:09;;;;;;;3.03;1.20;;;16.20;99.90;;;;;;5032517;28;20302;-82
2022/06/12 02:03:45;;;;;;;3.28;1.30;;;15.90;99.90;;;;;;5023771;28;20216;-82
2022/06/12 02:06:20;;;;;;;6.22;1.00;;;15.90;99.90;;;;;;5032727;28;20182;-82
2022/06/12 02:08:58;;;;;;;2.88;0.85;;;15.90;99.90;;;;;;5032867;28;20175;-82
2022/06/12 02:15:00;;;;;;;4.60;1.10;;;15.80;99.90;;;;;;4992371;28;20237;-82
2022/06/12 02:17:32;;;;;;;5.57;1.30;;;15.60;99.90;;;;;;5029104;28;20276;-82
2022/06/12 02:20:00;;;;;;;3.40;2.03;;;15.60;99.90;;;;;;5032412;28;20184;-82
2022/06/12 02:22:30;;;;;;;5.38;1.13;;;15.60;99.90;;;;;;5032327;28;20218;-82
2022/06/12 02:24:58;;;;;;;9.25;1.55;;;15.80;99.90;;;;;;5033803;28;20194;-82
2022/06/12 02:27:40;;;;;;;9.15;1.33;;;16.00;99.90;;;;;;5033587;28;20188;-81
2022/06/12 02:30:23;;;;;;;3.22;1.00;;;15.90;99.90;;;;;;5033501;28;20266;-82
2022/06/12 02:33:04;;;;;;;3.85;1.20;;;15.90;99.90;;;;;;5032681;28;20583;-82
2022/06/12 02:35:39;;;;;;;8.82;1.20;;;16.00;99.90;;;;;;5032374;28;20175;-82
2022/06/12 02:38:17;;;;;;;6.15;1.92;;;16.00;99.90;;;;;;5032730;28;20563;-82
2022/06/12 02:40:55;;;;;;;3.72;1.08;;;15.90;99.90;;;;;;5032833;28;20202;-83
2022/06/12 02:43:27;;;;;;;5.43;1.38;;;15.80;99.90;;;;;;5032766;28;20231;-82
2022/06/12 02:46:02;;;;;;;8.88;1.40;;;15.80;99.90;;;;;;5032805;28;20234;-81
2022/06/12 02:48:30;;;;;;;7.75;1.92;;;15.80;99.90;;;;;;5035957;28;20175;-81
2022/06/12 02:51:28;;;;;;;3.25;1.35;;;15.90;99.90;;;;;;5046634;28;20188;-81
2022/06/12 02:54:15;;;;;;;4.45;1.40;;;15.80;99.90;;;;;;5036942;28;20667;-81
2022/06/12 02:57:09;;;;;;;4.05;1.58;;;15.70;99.90;;;;;;5034648;28;20226;-82
2022/06/12 03:00:03;;;;;;;4.20;1.10;;;15.40;99.90;;;;;;5032883;28;20207;-82
2022/06/12 03:02:37;;;;;;;3.85;1.30;;;15.30;99.90;;;;;;5031710;28;20250;-82
2022/06/12 03:05:12;;;;;;;4.82;1.48;;;15.30;99.90;;;;;;5031629;28;20195;-82
2022/06/12 03:07:39;;;;;;;5.97;1.20;;;15.40;99.90;;;;;;5031506;28;20262;-82
2022/06/12 03:10:08;;;;;;;4.50;1.25;;;15.40;99.90;;;;;;5031889;28;20187;-82
2022/06/12 03:12:34;;;;;;;3.88;1.20;;;15.50;99.90;;;;;;5033292;28;20172;-82
2022/06/12 03:15:01;;;;;;;4.63;1.80;;;15.40;99.90;;;;;;5031561;28;20259;-81
2022/06/12 03:17:27;;;;;;;5.03;1.83;;;15.40;99.90;;;;;;5032648;28;20544;-80
2022/06/12 03:19:56;;;;;;;6.40;1.35;;;15.50;99.90;;;;;;5031405;28;20187;-80
2022/06/12 03:22:40;;;;;;;3.17;1.90;;;15.30;99.90;;;;;;5031307;28;20212;-81
2022/06/12 03:25:52;;;;;;;3.17;1.40;;;15.00;99.90;;;;;;5033104;28;20622;-81
2022/06/12 03:28:35;;;;;;;8.88;1.48;;;15.10;99.90;;;;;;5023520;28;20186;-81
2022/06/12 03:31:01;;;;;;;8.40;1.42;;;15.30;99.90;;;;;;5031521;28;20175;-81
2022/06/12 03:33:35;;;;;;;8.32;1.10;;;15.30;99.90;;;;;;5031884;28;20175;-82
2022/06/12 03:36:14;;;;;;;13.05;1.38;;;15.10;99.90;;;;;;5031176;28;20266;-81
2022/06/12 03:39:05;;;;;;;6.25;1.40;;;15.10;99.90;;;;;;5032654;28;20172;-81
2022/06/12 03:41:33;;;;;;;15.05;2.45;;;15.30;99.90;;;;;;5031095;28;20235;-81
2022/06/12 03:44:10;;;;;;;9.52;1.95;;;15.30;99.90;;;;;;5031138;28;20179;-81
2022/06/12 03:46:49;;;;;;;5.75;1.55;;;15.40;99.90;;;;;;5032648;28;20168;-82
2022/06/12 03:49:25;;;;;;;8.40;1.98;;;15.60;99.90;;;;;;5030747;28;20192;-81
2022/06/12 03:52:31;;;;;;;5.20;1.58;;;15.50;99.90;;;;;;5031332;28;20183;-81
2022/06/12 03:55:08;;;;;;;6.95;1.35;;;15.60;99.90;;;;;;4990847;28;20620;-82
2022/06/12 03:57:51;;;;;;;6.75;1.38;;;15.60;99.90;;;;;;5042257;28;20189;-81
2022/06/12 04:00:35;;;;;;;10.98;1.42;;;15.60;99.90;;;;;;5032344;28;20575;-81
2022/06/12 04:03:09;;;;;;;10.68;1.58;;;15.60;99.90;;;;;;5031129;28;20215;-83
2022/06/12 04:05:42;;;;;;;5.00;1.27;;;16.00;99.90;;;;;;5031279;28;20255;-81
2022/06/12 04:08:13;;;;;;;6.72;1.70;;;16.10;99.90;;;;;;5031143;28;20191;-82
2022/06/12 04:10:40;;;;;;;3.92;1.45;;;16.40;99.90;;;;;;5032113;28;20695;-82
2022/06/12 04:13:09;;;;;;;9.90;1.48;;;16.70;99.90;;;;;;5032711;28;20183;-82
2022/06/12 04:15:45;;;;;;;4.28;1.83;;;16.80;99.90;;;;;;5032133;28;20218;-82
2022/06/12 04:18:11;;;;;;;6.10;1.58;;;16.80;99.90;;;;;;5030895;28;20175;-82
2022/06/12 04:21:01;;;;;;;9.00;1.40;;;16.80;99.90;;;;;;5034487;28;20191;-81
2022/06/12 04:23:32;;;;;;;9.52;1.80;;;16.80;99.90;;;;;;5034630;28;20587;-81
2022/06/12 04:26:23;;;;;;;9.45;1.38;;;16.40;99.90;;;;;;5034463;28;20539;-81
2022/06/12 04:29:15;;;;;;;11.27;2.15;;;16.50;99.90;;;;;;5029854;28;20257;-81
2022/06/12 04:31:43;;;;;;;6.25;1.40;;;16.70;99.90;;;;;;5030863;28;20203;-81
2022/06/12 04:34:20;;;;;;;8.48;1.40;;;16.60;99.90;;;;;;5034690;28;20225;-81
2022/06/12 04:36:49;;;;;;;8.27;2.17;;;16.60;99.90;;;;;;5034518;28;20254;-82
2022/06/12 04:39:18;;;;;;;7.80;1.50;;;16.60;99.90;;;;;;5034158;28;20555;-81
2022/06/12 04:41:45;;;;;;;8.10;1.67;;;16.50;99.90;;;;;;5034482;28;20203;-81
2022/06/12 04:44:11;;;;;;;3.90;1.45;;;16.60;99.90;;;;;;5034328;28;20183;-80
2022/06/12 04:46:41;;;;;;;11.32;1.35;;;16.40;99.90;;;;;;5034344;28;20685;-80
2022/06/12 04:49:09;;;;;;;9.93;2.00;;;16.30;99.90;;;;;;5035484;28;20210;-81
2022/06/12 04:51:34;;;;;;;12.63;1.85;;;16.50;99.90;;;;;;5035149;28;20168;-81
2022/06/12 04:54:00;;;;;;;7.63;1.60;;;16.40;99.90;;;;;;5034663;28;20164;-82
2022/06/12 04:56:29;;;;;;;4.90;1.67;;;16.50;99.90;;;;;;5034181;28;20683;-81
2022/06/12 04:58:55;;;;;;;12.02;2.10;;;16.30;99.90;;;;;;5034084;28;20692;-81
2022/06/12 05:01:22;;;;;;;8.70;1.58;;;16.20;99.90;;;;;;5035122;28;20164;-81
2022/06/12 05:03:48;;;;;;;10.05;1.70;;;16.30;99.90;;;;;;5033911;28;20175;-81
2022/06/12 05:06:16;;;;;;;8.20;1.80;;;16.30;99.90;;;;;;5033800;28;20168;-81
2022/06/12 05:08:43;;;;;;;9.30;1.75;;;16.10;99.90;;;;;;5034766;28;20250;-81
2022/06/12 05:11:09;;;;;;;5.03;1.63;;;16.20;99.90;;;;;;5034998;28;20171;-82
2022/06/12 05:13:35;;;;;;;9.68;1.73;;;16.20;99.90;;;;;;5034937;28;20207;-82
2022/06/12 05:16:01;;;;;;;11.00;2.03;;;16.20;99.90;;;;;;5033751;28;20202;-82
2022/06/12 05:18:27;;;;;;;11.35;2.20;;;16.40;99.90;;;;;;5033703;28;20739;-82
2022/06/12 05:20:52;;;;;;;9.40;1.77;;;16.40;99.90;;;;;;5034954;28;20188;-82
2022/06/12 05:23:20;;;;;;;6.72;2.20;;;16.40;99.90;;;;;;5033716;28;20207;-81
2022/06/12 05:25:46;;;;;;;11.32;2.20;;;16.30;99.90;;;;;;5033512;28;20176;-81
2022/06/12 05:28:15;;;;;;;7.20;2.35;;;16.50;99.90;;;;;;5033217;28;20168;-81
2022/06/12 05:30:41;;;;;;;8.23;1.63;;;16.40;99.90;;;;;;5034301;28;20191;-81
2022/06/12 05:33:07;;;;;;;10.40;2.13;;;16.50;99.90;;;;;;5034194;28;20644;-81
2022/06/12 05:35:36;;;;;;;20.95;2.03;;;16.70;99.90;;;;;;5033123;28;20251;-82
2022/06/12 05:38:02;;;;;;;16.05;2.83;;;16.80;99.90;;;;;;5033467;28;20168;-81
2022/06/12 05:40:30;;;;;;;13.02;1.77;;;17.00;99.90;;;;;;5033148;28;20679;-82
2022/06/12 05:42:56;;;;;;;17.20;2.40;;;17.20;99.90;;;;;;5033050;28;20616;-82
2022/06/12 05:45:24;;;;;;;15.30;2.47;;;17.20;99.90;;;;;;5049851;28;20258;-86
2022/06/12 05:47:56;;;;;;;13.63;2.17;;;16.90;99.90;;;;;;5034370;28;20168;-82
2022/06/12 05:50:26;;;;;;;10.75;3.22;;;17.20;99.90;;;;;;5034219;28;20180;-82
2022/06/12 05:52:52;;;;;;;12.45;2.22;;;17.40;99.90;;;;;;5034321;28;20274;-81
2022/06/12 05:55:18;;;;;;;6.32;2.08;;;17.30;99.90;;;;;;5032746;28;20687;-81
2022/06/12 05:57:43;;;;;;;6.63;2.30;;;17.30;99.90;;;;;;5034294;28;20175;-81
2022/06/12 06:00:15;;;;;;;13.13;2.88;;;17.50;99.90;;;;;;5032785;28;20675;-81
2022/06/12 06:02:42;;;;;;;6.50;2.03;;;17.80;99.90;;;;;;5034156;28;20258;-81
2022/06/12 06:05:09;;;;;;;12.07;2.40;;;17.80;99.90;;;;;;5032744;28;20686;-80
2022/06/12 06:07:35;;;;;;;17.45;2.80;;;17.90;99.90;;;;;;5034021;28;20183;-81
2022/06/12 06:10:02;;;;;;;16.35;2.58;;;18.10;99.90;;;;;;5032187;28;20183;-80
2022/06/12 06:12:28;;;;;;;11.38;2.38;;;18.30;99.90;;;;;;5032238;28;20375;-81
2022/06/12 06:14:54;;;;;;;17.33;3.15;;;18.30;99.90;;;;;;5032320;28;20263;-82
2022/06/12 06:17:20;;;;;;;7.45;2.88;;;18.40;99.90;;;;;;5032311;28;20171;-81
2022/06/12 06:19:45;;;;;;;17.83;2.90;;;18.50;99.90;;;;;;5031755;28;20564;-82
2022/06/12 06:22:15;;;;;;;16.48;2.75;;;18.60;99.90;;;;;;5033362;28;20203;-82
2022/06/12 06:24:42;;;;;;;15.80;2.75;;;18.80;99.90;;;;;;5032342;28;20240;-83
2022/06/12 06:27:09;;;;;;;14.18;3.38;;;18.90;99.90;;;;;;5032034;28;20167;-82
2022/06/12 06:29:36;;;;;;;19.48;3.83;;;19.00;99.90;;;;;;5033611;28;20672;-81
2022/06/12 06:32:02;;;;;;;12.90;3.15;;;19.10;99.90;;;;;;5032038;28;20177;-82
2022/06/12 06:34:28;;;;;;;14.45;3.35;;;19.10;99.90;;;;;;5032964;28;20176;-82
2022/06/12 06:36:53;;;;;;;11.85;2.70;;;18.90;99.90;;;;;;5031926;28;20175;-82
2022/06/12 06:39:19;;;;;;;10.38;3.25;;;18.70;99.90;;;;;;5031729;28;20819;-82
2022/06/12 06:41:45;;;;;;;10.82;2.85;;;18.80;99.90;;;;;;5032834;28;20203;-82
2022/06/12 06:46:54;;;;;;;15.57;2.78;;;18.90;99.90;;;;;;5032949;28;20178;-82
2022/06/12 06:49:22;;;;;;;11.80;2.70;;;18.90;99.90;;;;;;5032634;28;20551;-82
2022/06/12 06:51:49;;;;;;;17.58;3.42;;;19.20;99.90;;;;;;5031826;28;20267;-81
2022/06/12 06:54:15;;;;;;;11.23;2.83;;;19.60;99.90;;;;;;5031812;28;20617;-82
2022/06/12 06:56:41;;;;;;;12.27;2.80;;;20.50;99.90;;;;;;5031698;28;20175;-84
2022/06/12 06:59:06;;;;;;;11.88;3.17;;;21.80;99.90;;;;;;5031696;28;20214;-84
2022/06/12 07:01:34;;;;;;;15.23;2.97;;;22.80;99.90;;;;;;5031920;28;20178;-83
2022/06/12 07:04:00;;;;;;;15.40;3.38;;;23.70;99.90;;;;;;5035365;28;20595;-81
2022/06/12 07:06:25;;;;;;;13.20;2.80;;;24.00;99.90;;;;;;5043635;28;20196;-82
2022/06/12 07:08:52;;;;;;;12.55;2.75;;;24.60;99.90;;;;;;5043216;28;20540;-82
2022/06/12 07:11:18;;;;;;;18.35;3.63;;;25.00;99.90;;;;;;5042080;28;20156;-82
2022/06/12 07:13:44;;;;;;;14.68;3.13;;;24.80;99.90;;;;;;5034112;28;20259;-83
2022/06/12 07:16:09;;;;;;;12.10;3.08;;;24.50;99.90;;;;;;5031371;28;20640;-84
2022/06/12 07:18:35;;;;;;;15.82;2.72;;;24.90;99.90;;;;;;5032149;28;20179;-83
2022/06/12 07:21:02;;;;;;;11.88;3.10;;;24.70;99.90;;;;;;5031036;28;20221;-83
2022/06/12 07:23:28;;;;;;;11.43;2.67;;;25.10;99.90;;;;;;5031218;28;20211;-82
2022/06/12 07:25:58;;;;;;;21.73;2.70;;;25.80;99.90;;;;;;5032834;28;20183;-82
2022/06/12 07:28:25;;;;;;;8.43;2.60;;;26.00;99.90;;;;;;5033430;28;20178;-82
2022/06/12 07:30:51;;;;;;;10.23;2.90;;;26.20;99.90;;;;;;5031195;28;20196;-81
2022/06/12 07:33:18;;;;;;;16.52;2.30;;;26.70;99.90;;;;;;5031587;28;20179;-82
2022/06/12 07:35:45;;;;;;;11.48;2.65;;;26.90;99.90;;;;;;5032248;28;20536;-82
2022/06/12 07:38:14;;;;;;;12.10;2.50;;;26.80;99.90;;;;;;5030978;28;20196;-82
2022/06/12 07:40:44;;;;;;;8.23;2.10;;;26.40;99.90;;;;;;5031277;28;20279;-82
2022/06/12 07:43:10;;;;;;;11.27;1.80;;;26.30;99.90;;;;;;5030951;28;20702;-82
2022/06/12 07:45:41;;;;;;;9.35;2.35;;;26.70;99.90;;;;;;5031349;28;20167;-83
2022/06/12 07:48:08;;;;;;;13.30;2.50;;;26.80;99.90;;;;;;5032274;28;20572;-82
2022/06/12 07:50:35;;;;;;;13.70;2.92;;;27.40;99.90;;;;;;5030856;28;20179;-83
2022/06/12 07:53:00;;;;;;;6.28;2.33;;;27.00;99.90;;;;;;5032237;28;20172;-83
2022/06/12 07:55:26;;;;;;;7.03;2.00;;;26.60;99.90;;;;;;5032598;28;20172;-82
2022/06/12 07:57:53;;;;;;;11.52;2.72;;;26.20;99.90;;;;;;5035323;28;20255;-83
2022/06/12 08:00:19;;;;;;;19.58;3.30;;;25.80;99.90;;;;;;5035760;28;20207;-84
2022/06/12 08:02:46;;;;;;;12.25;2.10;;;25.50;99.90;;;;;;5034530;28;20626;-83
2022/06/12 08:05:14;;;;;;;9.63;2.40;;;24.60;99.90;;;;;;5035942;28;20220;-82
2022/06/12 08:07:40;;;;;;;10.55;2.50;;;23.90;99.90;;;;;;5036193;28;20171;-82
2022/06/12 08:10:06;;;;;;;5.10;2.10;;;23.70;99.90;;;;;;5035846;28;20199;-82
2022/06/12 08:12:37;;;;;;;7.05;1.63;;;23.30;99.90;;;;;;5034503;28;20194;-82
2022/06/12 08:15:04;;;;;;;15.13;2.75;;;23.10;99.90;;;;;;5035904;28;20179;-82
2022/06/12 08:17:30;;;;;;;9.70;2.40;;;22.40;99.90;;;;;;5035640;28;20163;-82
2022/06/12 08:22:40;;;;;;;11.25;2.45;;;22.10;99.90;;;;;;5035598;28;20273;-82
2022/06/12 08:25:06;;;;;;;8.30;1.85;;;21.90;99.90;;;;;;5035442;28;20164;-82
2022/06/12 08:27:32;;;;;;;11.88;2.17;;;21.80;99.90;;;;;;5034394;28;20171;-82
2022/06/12 08:29:58;;;;;;;12.15;1.95;;;21.80;99.90;;;;;;5035297;28;20226;-82
2022/06/12 08:32:24;;;;;;;11.93;2.78;;;21.90;99.90;;;;;;5035167;28;20172;-82
2022/06/12 08:35:01;;;;;;;8.68;2.65;;;21.90;99.90;;;;;;5034085;28;20171;-83
2022/06/12 08:37:34;;;;;;;6.70;1.85;;;21.80;99.90;;;;;;5035143;28;20178;-82
2022/06/12 08:40:00;;;;;;;6.68;1.85;;;22.10;99.90;;;;;;5033460;28;20195;-82
2022/06/12 08:42:31;;;;;;;8.82;1.63;;;21.90;99.90;;;;;;5035171;28;20282;-82
2022/06/12 08:45:21;;;;;;;7.55;1.63;;;22.10;99.90;;;;;;5035231;28;20167;-82
2022/06/12 08:48:10;;;;;;;15.57;2.58;;;22.30;99.90;;;;;;5033608;28;20168;-83
2022/06/12 08:50:40;;;;;;;9.65;1.88;;;22.20;99.90;;;;;;5033399;28;20195;-82
2022/06/12 08:53:15;;;;;;;3.80;2.03;;;22.40;99.90;;;;;;5034932;28;20172;-81
2022/06/12 08:55:57;;;;;;;7.00;1.83;;;22.50;99.90;;;;;;5033512;28;20167;-83
2022/06/12 08:58:51;;;;;;;6.90;1.70;;;22.60;99.90;;;;;;5033127;28;20551;-82
2022/06/12 09:01:17;;;;;;;5.75;1.80;;;22.30;99.90;;;;;;5034714;28;20211;-82
2022/06/12 09:03:53;;;;;;;5.78;1.77;;;22.40;99.90;;;;;;5033443;28;20738;-82
2022/06/12 09:06:19;;;;;;;6.75;1.85;;;22.60;99.90;;;;;;5032735;28;20217;-82
2022/06/12 09:09:04;;;;;;;12.05;2.30;;;22.50;99.90;;;;;;5033323;28;20175;-82
2022/06/12 09:11:40;;;;;;;7.80;1.70;;;22.80;99.90;;;;;;5033335;28;20633;-82
2022/06/12 09:14:41;;;;;;;7.93;1.55;;;23.00;99.90;;;;;;5034319;28;20159;-82
2022/06/12 09:17:33;;;;;;;9.30;2.20;;;23.20;99.90;;;;;;5034476;28;20179;-82
2022/06/12 09:20:20;;;;;;;8.35;1.90;;;23.20;99.90;;;;;;5032697;28;20203;-82
2022/06/12 09:23:14;;;;;;;3.20;1.42;;;22.90;99.90;;;;;;5033214;28;20718;-82
2022/06/12 09:25:48;;;;;;;4.78;1.85;;;22.80;99.90;;;;;;5033116;28;20204;-83
2022/06/12 09:28:24;;;;;;;5.80;1.50;;;22.90;99.90;;;;;;5032860;28;20167;-83
2022/06/12 09:31:00;;;;;;;3.88;1.52;;;23.20;99.90;;;;;;5032909;28;20269;-81
2022/06/12 09:33:34;;;;;;;13.50;2.40;;;23.30;99.90;;;;;;5032814;28;20163;-82
2022/06/12 09:36:53;;;;;;;5.55;2.03;;;23.50;99.90;;;;;;5033886;28;20697;-82
2022/06/12 09:39:46;;;;;;;5.63;1.27;;;23.10;99.90;;;;;;4992110;28;20200;-82
2022/06/12 09:42:22;;;;;;;8.10;1.65;;;23.30;99.90;;;;;;4975947;28;20205;-82
2022/06/12 09:45:01;;;;;;;5.32;1.75;;;23.50;99.90;;;;;;5032809;28;20574;-82
2022/06/12 09:47:38;;;;;;;3.30;1.48;;;23.60;99.90;;;;;;5033785;28;20179;-83
2022/06/12 09:50:11;;;;;;;8.55;2.17;;;23.80;99.90;;;;;;5032045;28;20223;-82
2022/06/12 09:52:54;;;;;;;7.75;2.63;;;23.80;99.90;;;;;;5033525;28;20179;-81
2022/06/12 09:55:41;;;;;;;9.02;1.67;;;23.80;99.90;;;;;;5032155;28;20180;-82
2022/06/12 09:58:38;;;;;;;7.97;1.88;;;23.50;99.90;;;;;;5033345;28;20193;-82
2022/06/12 10:01:16;;;;;;;6.93;1.65;;;23.50;99.90;;;;;;5031972;28;20176;-83
2022/06/12 10:03:51;;;;;;;5.88;1.40;;;23.60;99.90;;;;;;5032329;28;20235;-83
2022/06/12 10:06:30;;;;;;;6.18;1.63;;;23.80;99.90;;;;;;5031913;28;20621;-83
2022/06/12 10:09:30;;;;;;;6.78;1.75;;;24.00;99.90;;;;;;5033034;28;20184;-82
2022/06/12 10:12:03;;;;;;;7.03;2.85;;;23.80;99.90;;;;;;5025527;28;20346;-83
2022/06/12 10:14:39;;;;;;;17.20;7.80;;;23.90;99.90;;;;;;5032579;28;20175;-83
2022/06/12 10:17:18;;;;;;;4.90;2.20;;;23.90;99.90;;;;;;5032778;28;20175;-82
2022/06/12 10:20:07;;;;;;;5.15;2.35;;;24.30;99.90;;;;;;5031736;28;20656;-82
2022/06/12 10:22:41;;;;;;;12.48;1.98;;;24.30;99.90;;;;;;5032617;28;20203;-81
2022/06/12 10:25:21;;;;;;;4.97;2.10;;;24.40;99.90;;;;;;5032180;28;20172;-82
2022/06/12 10:27:51;;;;;;;8.45;2.30;;;24.20;99.90;;;;;;5033112;28;20171;-82
2022/06/12 10:30:32;;;;;;;15.00;2.38;;;24.20;99.90;;;;;;5031490;28;20184;-83
2022/06/12 10:33:07;;;;;;;8.15;2.20;;;24.00;99.90;;;;;;5031452;28;20535;-82
2022/06/12 10:35:44;;;;;;;10.15;2.05;;;23.70;99.90;;;;;;5032631;28;20155;-81
2022/06/12 10:38:10;;;;;;;4.22;1.80;;;23.70;99.90;;;;;;5032653;28;20262;-81
2022/06/12 10:40:35;;;;;;;5.60;2.10;;;23.70;99.90;;;;;;5031739;28;20220;-82
2022/06/12 10:43:23;;;;;;;10.90;2.17;;;23.70;99.90;;;;;;5032803;28;20248;-83
2022/06/12 10:45:59;;;;;;;14.02;1.58;;;23.80;99.90;;;;;;5031597;28;20202;-82
2022/06/12 10:48:29;;;;;;;7.28;1.67;;;23.70;99.90;;;;;;5032600;28;20183;-82
2022/06/12 10:50:58;;;;;;;8.73;1.95;;;24.00;99.90;;;;;;5032451;28;20182;-82
2022/06/12 10:53:27;;;;;;;3.85;2.50;;;24.40;99.90;;;;;;5031627;28;20182;-81
2022/06/12 10:56:08;;;;;;;6.80;2.17;;;24.70;99.90;;;;;;5032758;28;20676;-82
2022/06/12 10:58:58;;;;;;;3.45;1.80;;;24.80;99.90;;;;;;5032717;28;20229;-82
2022/06/12 11:01:48;;;;;;;11.02;2.20;;;24.70;99.90;;;;;;5032794;28;20166;-82
2022/06/12 11:04:30;;;;;;;5.63;1.70;;;24.50;99.90;;;;;;5032578;28;20183;-81
2022/06/12 11:07:09;;;;;;;5.00;1.73;;;24.20;99.90;;;;;;5031323;28;20187;-83
2022/06/12 11:09:57;;;;;;;4.53;1.63;;;24.30;99.90;;;;;;5031386;28;20187;-82
2022/06/12 11:12:54;;;;;;;7.75;1.50;;;24.40;99.90;;;;;;5032251;28;20265;-82
2022/06/12 11:16:13;;;;;;;5.78;1.67;;;24.40;99.90;;;;;;5029403;28;20274;-82
2022/06/12 11:19:06;;;;;;;8.20;1.33;;;24.20;99.90;;;;;;4991618;28;20188;-82
2022/06/12 11:21:43;;;;;;;6.18;1.63;;;24.10;99.90;;;;;;5048610;28;20186;-81
2022/06/12 11:24:24;;;;;;;4.53;1.45;;;24.20;99.90;;;;;;5031805;28;20662;-81
2022/06/12 11:27:25;;;;;;;4.72;1.63;;;24.20;99.90;;;;;;5036409;28;20178;-81
2022/06/12 11:30:25;;;;;;;6.50;1.60;;;24.40;99.90;;;;;;5020444;28;20655;-80
2022/06/12 11:33:12;;;;;;;5.82;1.35;;;24.40;99.90;;;;;;5037975;28;20184;-82
2022/06/12 11:36:12;;;;;;;6.28;2.05;;;24.40;99.90;;;;;;5035828;28;20168;-81
2022/06/12 11:38:47;;;;;;;10.25;2.33;;;24.40;99.90;;;;;;5035148;28;20171;-82
2022/06/12 11:41:31;;;;;;;8.80;1.80;;;24.40;99.90;;;;;;5036253;28;20643;-83
2022/06/12 11:44:37;;;;;;;10.40;2.00;;;24.00;99.90;;;;;;5036256;28;20238;-82
2022/06/12 11:47:29;;;;;;;3.33;1.77;;;23.70;99.90;;;;;;5034981;28;20872;-82
2022/06/12 11:50:21;;;;;;;7.15;1.85;;;23.60;99.90;;;;;;5035919;28;20245;-82
2022/06/12 11:53:04;;;;;;;6.80;1.88;;;23.80;99.90;;;;;;5035818;28;20239;-85
2022/06/12 11:55:33;;;;;;;5.35;2.05;;;23.90;99.90;;;;;;5035660;28;20168;-82
2022/06/12 11:58:17;;;;;;;4.40;1.75;;;24.20;99.90;;;;;;5036235;28;20168;-83
2022/06/12 12:00:58;;;;;;;4.72;1.42;;;24.70;99.90;;;;;;5034583;28;20229;-83
2022/06/12 12:03:41;;;;;;;7.38;2.08;;;24.90;99.90;;;;;;5034653;28;20291;-82
2022/06/12 12:06:36;;;;;;;6.78;1.52;;;24.70;99.90;;;;;;5034664;28;20306;-82
2022/06/12 12:09:22;;;;;;;5.10;1.60;;;24.80;99.90;;;;;;5035836;28;20191;-83
2022/06/12 12:11:54;;;;;;;6.80;1.83;;;25.00;99.90;;;;;;5034627;28;20176;-83
2022/06/12 12:14:25;;;;;;;4.32;1.88;;;25.00;99.90;;;;;;5034572;28;20160;-84
2022/06/12 12:17:03;;;;;;;7.55;1.55;;;25.00;99.90;;;;;;5035714;28;20170;-82
2022/06/12 12:19:44;;;;;;;9.18;2.22;;;25.40;99.90;;;;;;5034357;28;20194;-82
2022/06/12 12:22:47;;;;;;;4.10;1.75;;;25.60;99.90;;;;;;5035185;28;20204;-83
2022/06/12 12:25:56;;;;;;;12.65;1.98;;;25.60;99.90;;;;;;5035830;28;20195;-83
2022/06/12 12:28:31;;;;;;;7.28;1.63;;;25.60;99.90;;;;;;4993923;28;20181;-83
2022/06/12 12:31:05;;;;;;;8.32;2.13;;;25.50;99.90;;;;;;4994078;28;20210;-83
2022/06/12 12:33:32;;;;;;;5.10;1.42;;;25.30;99.90;;;;;;5019563;28;20222;-83
2022/06/12 12:41:45;;;;;;;12.07;1.88;;;24.80;99.90;;;;;;5037034;28;20529;-82
2022/06/12 12:44:15;;;;;;;5.53;1.50;;;24.80;99.90;;;;;;5035034;28;20168;-82
2022/06/12 12:46:50;;;;;;;5.22;1.73;;;25.00;99.90;;;;;;5034198;28;20690;-82
2022/06/12 12:49:34;;;;;;;5.55;1.85;;;25.40;99.90;;;;;;5034568;28;20195;-82
2022/06/12 12:52:07;;;;;;;7.00;1.60;;;25.50;99.90;;;;;;5034755;28;20171;-83
2022/06/12 12:54:54;;;;;;;13.85;2.35;;;25.40;99.90;;;;;;5034796;28;20168;-81
2022/06/12 12:57:33;;;;;;;7.22;1.92;;;25.20;99.90;;;;;;5033529;28;20172;-83
2022/06/12 12:59:59;;;;;;;6.25;1.77;;;25.00;99.90;;;;;;5033316;28;20222;-83
2022/06/12 13:02:25;;;;;;;7.38;2.10;;;24.60;99.90;;;;;;5049917;28;20714;-83
2022/06/12 13:04:53;;;;;;;7.78;1.70;;;24.50;99.90;;;;;;5034640;28;20250;-83
2022/06/12 13:07:41;;;;;;;5.53;1.55;;;24.50;99.90;;;;;;5034839;28;20222;-83
2022/06/12 13:10:55;;;;;;;4.97;1.65;;;24.30;99.90;;;;;;5034452;28;20191;-83
2022/06/12 13:13:55;;;;;;;7.47;1.73;;;24.30;99.90;;;;;;5024390;28;20241;-83
2022/06/12 13:16:49;;;;;;;6.13;1.58;;;24.20;99.90;;;;;;5033060;28;20172;-83
2022/06/12 13:19:18;;;;;;;3.28;1.42;;;24.30;99.90;;;;;;5034169;28;20270;-83
2022/06/12 13:21:56;;;;;;;7.53;1.50;;;24.50;99.90;;;;;;5034293;28;20211;-83
2022/06/12 13:24:39;;;;;;;6.30;1.65;;;24.70;99.90;;;;;;5032766;28;20203;-83
2022/06/12 13:27:24;;;;;;;3.15;1.42;;;24.80;99.90;;;;;;5034400;28;20206;-82
2022/06/12 13:29:52;;;;;;;3.05;2.00;;;24.70;99.10;;;;;;5034181;28;20219;-82
2022/06/12 13:32:37;;;;;;;9.55;1.60;;;24.50;99.80;;;;;;5032820;28;20624;-82
2022/06/12 13:35:06;;;;;;;12.75;1.52;;;24.10;99.90;;;;;;5033683;28;20540;-82
2022/06/12 13:37:35;;;;;;;4.28;1.20;;;24.10;99.60;;;;;;5033814;28;20692;-82
2022/06/12 13:40:03;;;;;;;2.10;1.15;;;24.10;99.90;;;;;;5032438;28;20730;-82